Simcha — PE7688 — position and weather

sailwx.info

Track history (hours):
 
Tides and Currents Weather Stations Pressure Air Temp Water Temp Dewpoint Dewpoint Depression Visibility Wind Speed Wind Dir Waves Ship Positions

Simcha

Last reported at 2016-Apr-30 13:12 UTC. Time now 2016-May-01 17:28 UTC.
Position N 51°49' E 004°48'.

Length 110 m.

Type: Ship. MMSI: 244780014.

Date/timePositionNaut miles runAvg speedWind from/ knotsBaromVisibWave heightAir tempDewpointWater temp
2016-Apr-30 13:12N 51°49' E 004°48'0 0.0
2016-Apr-30 12:33N 51°49' E 004°48'0 0.0
2016-Apr-30 11:33N 51°49' E 004°48'0 0.0
2016-Apr-30 10:33N 51°49' E 004°48'0 0.0
2016-Apr-30 09:33N 51°49' E 004°48'0 0.0
2016-Apr-30 08:33N 51°49' E 004°48'0 0.0
2016-Apr-30 07:33N 51°49' E 004°48'0 0.0
2016-Apr-30 06:33N 51°49' E 004°48'0 0.0
2016-Apr-30 05:33N 51°49' E 004°48'0 0.0
2016-Apr-30 04:33N 51°49' E 004°48'0 0.0
2016-Apr-30 03:33N 51°49' E 004°48'0 0.0
2016-Apr-30 02:33N 51°49' E 004°48'0 0.0
2016-Apr-30 01:33N 51°49' E 004°48'0 0.0
2016-Apr-30 00:33N 51°49' E 004°48'0 0.0
2016-Apr-29 23:33N 51°49' E 004°48'0 0.0
2016-Apr-29 22:33N 51°49' E 004°48'0 0.0
2016-Apr-29 21:33N 51°49' E 004°48'0 0.0
2016-Apr-29 20:33N 51°49' E 004°48'0 0.0
2016-Apr-29 19:33N 51°49' E 004°48'0 0.0
2016-Apr-29 18:33N 51°49' E 004°48'0 0.0
2016-Apr-29 17:33N 51°49' E 004°48'0 0.0
2016-Apr-29 16:33N 51°49' E 004°48'0 0.0
2016-Apr-29 15:32N 51°49' E 004°48'0 0.0
2016-Apr-29 14:33N 51°49' E 004°48'0 0.0
2016-Apr-29 13:33N 51°49' E 004°48'0 0.0
2016-Apr-29 12:30N 51°49' E 004°48'0 0.0
2016-Apr-29 11:33N 51°49' E 004°48'0 0.0
2016-Apr-29 10:33N 51°49' E 004°48'0 0.0
2016-Apr-29 09:33N 51°49' E 004°48'  
2016-Apr-24 09:19N 51°49' E 004°48'0 0.0
2016-Apr-24 04:28N 51°49' E 004°48'0 0.0
2016-Apr-23 13:30N 51°49' E 004°48'0 0.0
2016-Apr-22 04:13N 51°49' E 004°48'0 0.0
2016-Apr-22 01:30N 51°49' E 004°48'0 0.0
2016-Apr-21 19:20N 51°49' E 004°48'0 0.0
2016-Apr-21 18:32N 51°49' E 004°48'0 0.0
2016-Apr-21 16:28N 51°49' E 004°48'0 0.0
2016-Apr-21 15:33N 51°49' E 004°48'5 2.3
2016-Apr-21 13:30N 51°49' E 004°40'30 4.9
2016-Apr-21 07:24N 51°24' E 004°14'7 7.3
2016-Apr-21 06:29N 51°18' E 004°20'4 4.2
2016-Apr-21 05:33N 51°15' E 004°23'4 3.5
2016-Apr-21 04:18N 51°14' E 004°30'0 0.0
2016-Apr-21 02:21N 51°14' E 004°30'0 0.0
2016-Apr-21 01:17N 51°14' E 004°30'0 0.0
2016-Apr-21 00:08N 51°14' E 004°30'0 0.0
2016-Apr-20 23:25N 51°14' E 004°30'0 0.0
2016-Apr-20 22:07N 51°14' E 004°30'0 0.0
2016-Apr-20 19:19N 51°14' E 004°30'  
Track history (hours):
 
Tides and Currents Weather Stations Pressure Air Temp Water Temp Dewpoint Dewpoint Depression Visibility Wind Speed Wind Dir Waves Ship Positions

Simcha

Last reported at 2016-Apr-30 13:12 UTC. Time now 2016-May-01 17:28 UTC.
Position N 51°49' E 004°48'.

Length 110 m.

Type: Ship. MMSI: 244780014.

Date/timePositionNaut miles runAvg speedWind from/ knotsBaromVisibWave heightAir tempDewpointWater temp
2016-Apr-30 13:12N 51°49' E 004°48'0 0.0
2016-Apr-30 12:33N 51°49' E 004°48'0 0.0
2016-Apr-30 11:33N 51°49' E 004°48'0 0.0
2016-Apr-30 10:33N 51°49' E 004°48'0 0.0
2016-Apr-30 09:33N 51°49' E 004°48'0 0.0
2016-Apr-30 08:33N 51°49' E 004°48'0 0.0
2016-Apr-30 07:33N 51°49' E 004°48'0 0.0
2016-Apr-30 06:33N 51°49' E 004°48'0 0.0
2016-Apr-30 05:33N 51°49' E 004°48'0 0.0
2016-Apr-30 04:33N 51°49' E 004°48'0 0.0
2016-Apr-30 03:33N 51°49' E 004°48'0 0.0
2016-Apr-30 02:33N 51°49' E 004°48'0 0.0
2016-Apr-30 01:33N 51°49' E 004°48'0 0.0
2016-Apr-30 00:33N 51°49' E 004°48'0 0.0
2016-Apr-29 23:33N 51°49' E 004°48'0 0.0
2016-Apr-29 22:33N 51°49' E 004°48'0 0.0
2016-Apr-29 21:33N 51°49' E 004°48'0 0.0
2016-Apr-29 20:33N 51°49' E 004°48'0 0.0
2016-Apr-29 19:33N 51°49' E 004°48'0 0.0
2016-Apr-29 18:33N 51°49' E 004°48'0 0.0
2016-Apr-29 17:33N 51°49' E 004°48'0 0.0
2016-Apr-29 16:33N 51°49' E 004°48'0 0.0
2016-Apr-29 15:32N 51°49' E 004°48'0 0.0
2016-Apr-29 14:33N 51°49' E 004°48'0 0.0
2016-Apr-29 13:33N 51°49' E 004°48'0 0.0
2016-Apr-29 12:30N 51°49' E 004°48'0 0.0
2016-Apr-29 11:33N 51°49' E 004°48'0 0.0
2016-Apr-29 10:33N 51°49' E 004°48'0 0.0
2016-Apr-29 09:33N 51°49' E 004°48'  
2016-Apr-24 09:19N 51°49' E 004°48'0 0.0
2016-Apr-24 04:28N 51°49' E 004°48'0 0.0
2016-Apr-23 13:30N 51°49' E 004°48'0 0.0
2016-Apr-22 04:13N 51°49' E 004°48'0 0.0
2016-Apr-22 01:30N 51°49' E 004°48'0 0.0
2016-Apr-21 19:20N 51°49' E 004°48'0 0.0
2016-Apr-21 18:32N 51°49' E 004°48'0 0.0
2016-Apr-21 16:28N 51°49' E 004°48'0 0.0
2016-Apr-21 15:33N 51°49' E 004°48'5 2.3
2016-Apr-21 13:30N 51°49' E 004°40'30 4.9
2016-Apr-21 07:24N 51°24' E 004°14'7 7.3
2016-Apr-21 06:29N 51°18' E 004°20'4 4.2
2016-Apr-21 05:33N 51°15' E 004°23'4 3.5
2016-Apr-21 04:18N 51°14' E 004°30'0 0.0
2016-Apr-21 02:21N 51°14' E 004°30'0 0.0
2016-Apr-21 01:17N 51°14' E 004°30'0 0.0
2016-Apr-21 00:08N 51°14' E 004°30'0 0.0
2016-Apr-20 23:25N 51°14' E 004°30'0 0.0
2016-Apr-20 22:07N 51°14' E 004°30'0 0.0
2016-Apr-20 19:19N 51°14' E 004°30'  

Dump ship's entire track history